Time;durP1;ratioP1;P1;durP2;ratioP2;P2;SDS_P1;SDS_P2;PMS_P1;PMS_P2;Temp;Humidity;BMP_temperature;BMP_pressure;BME280_temperature;BME280_humidity;BME280_pressure;Samples;Min_cycle;Max_cycle;Signal;HPM_P1;HPM_P2
2023/04/14 00:02:10;;;;;;;12.30;7.77;;;;;;;9.67;79.61;99396.34;4223570;28;20234;-64
2023/04/14 00:04:37;;;;;;;13.97;7.90;;;;;;;9.63;79.66;99381.50;4219697;28;20380;-62
2023/04/14 00:07:04;;;;;;;13.23;7.50;;;;;;;9.62;79.67;99393.31;4218285;28;20349;-63
2023/04/14 00:09:30;;;;;;;12.47;7.10;;;;;;;9.69;79.69;99383.53;4222293;28;22909;-63
2023/04/14 00:11:57;;;;;;;12.73;7.13;;;;;;;9.67;79.65;99385.53;4216411;28;20299;-67
2023/04/14 00:14:24;;;;;;;13.80;7.30;;;;;;;9.61;79.56;99378.94;4215784;28;20422;-63
2023/04/14 00:16:50;;;;;;;13.93;7.13;;;;;;;9.58;79.66;99382.00;4209430;28;20231;-63
2023/04/14 00:19:17;;;;;;;15.00;8.17;;;;;;;9.55;79.99;99379.63;4223140;28;20241;-64
2023/04/14 00:21:43;;;;;;;13.37;7.30;;;;;;;9.56;80.15;99384.00;4219324;28;21702;-63
2023/04/14 00:24:10;;;;;;;12.60;7.63;;;;;;;9.56;79.93;99384.00;4222244;28;21141;-61
2023/04/14 00:26:37;;;;;;;11.03;7.10;;;;;;;9.59;79.83;99385.53;4224303;28;20266;-64
2023/04/14 00:29:04;;;;;;;12.07;7.20;;;;;;;9.55;79.70;99379.63;4213021;28;20228;-63
2023/04/14 00:31:31;;;;;;;11.20;6.90;;;;;;;9.54;79.79;99379.78;4209862;28;21115;-62
2023/04/14 00:33:57;;;;;;;12.27;7.70;;;;;;;9.55;80.15;99376.09;4213437;28;20345;-62
2023/04/14 00:36:24;;;;;;;13.63;7.30;;;;;;;9.49;80.10;99369.47;4225920;28;20228;-64
2023/04/14 00:38:50;;;;;;;15.27;7.77;;;;;;;9.56;80.11;99370.50;4218956;28;25511;-65
2023/04/14 00:41:17;;;;;;;11.80;6.70;;;;;;;9.49;80.05;99367.63;4217198;28;22448;-63
2023/04/14 00:43:43;;;;;;;10.70;6.90;;;;;;;9.60;79.91;99368.31;4228427;28;20309;-63
2023/04/14 00:46:10;;;;;;;10.83;6.83;;;;;;;9.55;80.03;99368.81;4232118;28;20236;-64
2023/04/14 00:48:37;;;;;;;10.60;6.90;;;;;;;9.60;79.68;99366.44;4212364;28;22278;-64
2023/04/14 00:51:03;;;;;;;10.73;6.60;;;;;;;9.57;80.18;99365.94;4228229;28;20235;-64
2023/04/14 00:53:31;;;;;;;11.93;6.43;;;;;;;9.66;79.43;99363.09;4224973;28;25589;-62
2023/04/14 00:55:58;;;;;;;12.37;6.97;;;;;;;9.60;79.48;99371.84;4221650;28;20261;-64
2023/04/14 00:58:25;;;;;;;15.27;6.30;;;;;;;9.60;79.71;99369.16;4218599;28;20235;-63
2023/04/14 01:00:54;;;;;;;11.60;7.07;;;;;;;9.59;79.65;99359.34;4228933;28;20270;-63
2023/04/14 01:03:23;;;;;;;10.97;6.23;;;;;;;9.56;79.66;99373.22;4210749;28;20244;-64
2023/04/14 01:05:50;;;;;;;11.53;6.37;;;;;;;9.56;79.80;99369.63;4227738;28;20247;-65
2023/04/14 01:08:17;;;;;;;12.87;6.73;;;;;;;9.63;79.45;99376.94;4221469;28;20297;-62
2023/04/14 01:10:57;;;;;;;10.47;6.27;;;;;;;9.54;79.74;99369.00;4210633;28;20497;-63
2023/04/14 01:13:32;;;;;;;10.80;6.63;;;;;;;9.47;79.81;99374.19;4228939;28;21000;-63
2023/04/14 01:16:03;;;;;;;11.53;6.27;;;;;;;9.42;80.38;99373.88;4210327;28;20929;-65
2023/04/14 01:19:00;;;;;;;9.13;6.13;;;;;;;9.46;80.24;99373.38;4219612;28;21739;-62
2023/04/14 01:21:31;;;;;;;13.23;6.67;;;;;;;9.43;80.21;99370.16;4220884;28;20278;-63
2023/04/14 01:24:19;;;;;;;10.73;6.37;;;;;;;9.41;80.25;99372.16;4228504;28;20620;-64
2023/04/14 01:26:46;;;;;;;10.33;6.87;;;;;;;9.33;80.71;99375.69;4192921;28;20535;-65
2023/04/14 01:29:33;;;;;;;11.73;6.70;;;;;;;9.27;80.92;99376.34;4225202;28;20885;-65
2023/04/14 01:32:19;;;;;;;12.13;6.77;;;;;;;9.21;81.15;99372.47;4233290;28;21899;-63
2023/04/14 01:35:04;;;;;;;10.27;6.57;;;;;;;9.17;81.21;99380.06;4235069;28;20234;-63
2023/04/14 01:37:34;;;;;;;10.80;7.17;;;;;;;9.15;81.32;99367.72;4207481;28;20235;-63
2023/04/14 01:40:06;;;;;;;13.90;7.00;;;;;;;9.10;81.57;99378.16;4224737;28;21183;-63
2023/04/14 01:42:35;;;;;;;12.07;7.33;;;;;;;9.11;81.40;99375.28;4219358;28;20234;-62
2023/04/14 01:45:07;;;;;;;10.97;6.50;;;;;;;9.03;81.51;99361.78;4204798;28;20310;-62
2023/04/14 01:47:34;;;;;;;12.50;7.50;;;;;;;8.98;81.98;99374.91;4208669;28;21269;-62
2023/04/14 01:50:04;;;;;;;11.17;7.10;;;;;;;8.97;81.99;99371.38;4215096;28;20349;-64
2023/04/14 01:52:31;;;;;;;13.77;8.17;;;;;;;8.98;82.08;99358.72;4207381;28;21597;-63
2023/04/14 01:54:58;;;;;;;10.47;7.00;;;;;;;8.99;81.94;99371.22;4226086;28;21567;-64
2023/04/14 01:57:26;;;;;;;10.30;7.23;;;;;;;9.00;81.68;99371.03;4214412;28;20377;-63
2023/04/14 01:59:54;;;;;;;11.67;7.00;;;;;;;8.98;81.97;99373.09;4198891;28;20239;-61
2023/04/14 02:02:21;;;;;;;12.33;6.60;;;;;;;8.97;81.87;99365.13;4224330;28;20238;-62
2023/04/14 02:04:49;;;;;;;10.80;6.87;;;;;;;8.98;81.81;99369.53;4222534;28;21676;-63
2023/04/14 02:07:16;;;;;;;9.63;6.40;;;;;;;9.01;81.51;99374.59;4210846;28;21182;-62
2023/04/14 02:09:44;;;;;;;13.13;7.00;;;;;;;8.86;82.02;99379.78;4205823;28;20309;-62
2023/04/14 02:12:11;;;;;;;13.37;7.30;;;;;;;8.88;82.07;99380.47;4225773;28;22329;-65
2023/04/14 02:14:40;;;;;;;12.97;7.20;;;;;;;8.93;81.62;99385.38;4211044;28;21764;-62
2023/04/14 02:17:09;;;;;;;16.27;6.63;;;;;;;8.93;81.57;99383.50;4219188;28;21783;-64
2023/04/14 02:19:35;;;;;;;13.00;6.23;;;;;;;8.92;81.34;99375.56;4218770;28;20307;-62
2023/04/14 02:22:03;;;;;;;12.73;6.63;;;;;;;8.82;82.02;99378.41;4216388;28;21114;-64
2023/04/14 02:24:29;;;;;;;16.53;7.40;;;;;;;8.68;82.37;99377.16;4217151;28;20235;-64
2023/04/14 02:27:00;;;;;;;13.60;8.00;;;;;;;8.60;82.59;99383.38;4220306;28;21001;-63
2023/04/14 02:29:27;;;;;;;16.47;9.70;;;;;;;8.57;82.21;99381.00;4224774;28;20231;-63
2023/04/14 02:31:58;;;;;;;20.13;9.93;;;;;;;8.52;82.25;99376.06;4229405;28;20278;-64
2023/04/14 02:34:29;;;;;;;15.10;9.10;;;;;;;8.46;82.41;99382.06;4233296;28;20249;-64
2023/04/14 02:36:57;;;;;;;20.63;9.90;;;;;;;8.29;83.04;99377.59;4227963;28;20333;-65
2023/04/14 02:39:31;;;;;;;18.37;10.10;;;;;;;8.07;83.81;99371.72;4215146;28;20743;-61
2023/04/14 02:42:07;;;;;;;22.80;11.07;;;;;;;7.99;84.36;99377.03;4219218;28;20258;-63
2023/04/14 02:44:38;;;;;;;21.03;9.87;;;;;;;7.90;84.81;99376.97;4230641;28;20223;-62
2023/04/14 02:47:07;;;;;;;21.97;11.00;;;;;;;7.88;84.83;99367.34;4234129;28;20301;-62
2023/04/14 02:49:36;;;;;;;25.57;12.20;;;;;;;7.82;85.12;99381.47;4216191;28;20746;-64
2023/04/14 02:52:09;;;;;;;18.03;10.67;;;;;;;7.68;85.83;99375.63;4221204;28;20252;-63
2023/04/14 02:54:38;;;;;;;18.43;10.53;;;;;;;7.63;86.13;99380.63;4227905;28;20343;-63
2023/04/14 02:57:04;;;;;;;19.80;11.30;;;;;;;7.66;86.26;99380.31;4210528;28;20396;-64
2023/04/14 02:59:31;;;;;;;21.50;11.60;;;;;;;7.55;86.88;99375.19;4226368;28;20264;-64
2023/04/14 03:02:01;;;;;;;23.40;11.77;;;;;;;7.55;86.72;99384.09;4221386;28;20315;-64
2023/04/14 03:04:33;;;;;;;27.57;13.10;;;;;;;7.52;86.97;99381.69;4228185;28;20224;-61
2023/04/14 03:07:01;;;;;;;28.93;13.23;;;;;;;7.53;87.04;99383.38;4220495;28;21108;-63
2023/04/14 03:09:30;;;;;;;23.70;13.53;;;;;;;7.39;87.54;99373.16;4223789;28;20271;-62
2023/04/14 03:11:57;;;;;;;25.10;13.57;;;;;;;7.44;87.53;99387.00;4216566;28;20401;-64
2023/04/14 03:14:25;;;;;;;24.20;12.37;;;;;;;7.48;87.45;99380.31;4225617;28;20302;-63
2023/04/14 03:16:52;;;;;;;26.33;13.50;;;;;;;7.52;87.48;99383.56;4230169;28;20235;-64
2023/04/14 03:19:21;;;;;;;25.70;13.87;;;;;;;7.40;87.43;99383.75;4216097;28;20305;-64
2023/04/14 03:21:49;;;;;;;25.03;13.60;;;;;;;7.41;87.52;99385.47;4226180;28;23501;-62
2023/04/14 03:24:23;;;;;;;27.93;14.40;;;;;;;7.44;87.39;99382.47;4230170;28;24352;-64
2023/04/14 03:26:51;;;;;;;26.40;14.37;;;;;;;7.34;87.72;99387.06;4232792;28;20245;-64
2023/04/14 03:29:19;;;;;;;27.27;14.07;;;;;;;7.33;88.10;99385.38;4224364;28;23047;-64
2023/04/14 03:31:46;;;;;;;27.70;14.30;;;;;;;7.31;88.05;99387.41;4216953;28;20302;-63
2023/04/14 03:34:14;;;;;;;26.80;13.77;;;;;;;7.28;88.00;99383.16;4228844;28;21113;-63
2023/04/14 03:36:41;;;;;;;25.20;13.83;;;;;;;7.39;87.98;99390.19;4224380;28;21419;-62
2023/04/14 03:39:10;;;;;;;26.00;14.30;;;;;;;7.36;88.15;99392.34;4218297;28;22862;-63
2023/04/14 03:41:38;;;;;;;27.97;14.10;;;;;;;7.37;88.07;99402.06;4227523;28;20239;-63
2023/04/14 03:44:05;;;;;;;25.27;13.43;;;;;;;7.43;87.63;99399.63;4225731;28;21098;-63
2023/04/14 03:46:32;;;;;;;25.33;13.50;;;;;;;7.42;87.58;99403.31;4219001;28;20307;-64
2023/04/14 03:49:00;;;;;;;28.30;14.10;;;;;;;7.38;87.63;99406.47;4224582;28;20260;-62
2023/04/14 03:51:28;;;;;;;30.33;14.60;;;;;;;7.33;88.06;99403.38;4218738;28;25298;-63
2023/04/14 03:53:56;;;;;;;29.47;13.90;;;;;;;7.28;88.03;99407.41;4224802;28;20540;-64
2023/04/14 03:56:24;;;;;;;26.57;14.70;;;;;;;7.18;88.63;99405.75;4221667;28;20232;-65
2023/04/14 03:58:53;;;;;;;27.13;13.73;;;;;;;7.22;88.58;99401.75;4212758;28;20232;-62
2023/04/14 04:01:24;;;;;;;30.67;14.67;;;;;;;7.23;88.53;99408.84;4234269;28;20243;-63
2023/04/14 04:03:52;;;;;;;26.87;14.37;;;;;;;7.34;88.01;99408.63;4252780;28;21391;-62
2023/04/14 04:06:19;;;;;;;26.33;13.50;;;;;;;7.33;87.83;99412.31;4246697;28;20677;-63
2023/04/14 04:08:47;;;;;;;25.40;13.80;;;;;;;7.19;88.33;99415.50;4240991;28;20227;-63
2023/04/14 04:11:17;;;;;;;30.97;14.70;;;;;;;7.28;88.01;99410.09;4236820;28;20237;-62
2023/04/14 04:13:46;;;;;;;25.90;14.33;;;;;;;7.23;88.03;99409.69;4248982;28;20320;-63
2023/04/14 04:16:13;;;;;;;31.03;15.17;;;;;;;7.14;88.00;99410.56;4242351;28;20240;-62
2023/04/14 04:18:45;;;;;;;32.50;15.57;;;;;;;7.15;87.92;99414.97;4238182;28;22694;-63
2023/04/14 04:21:13;;;;;;;33.83;16.30;;;;;;;7.10;88.29;99417.28;4246544;28;20497;-62
2023/04/14 04:23:41;;;;;;;32.20;16.53;;;;;;;7.05;88.27;99406.94;4228371;28;22672;-62
2023/04/14 04:26:08;;;;;;;34.33;17.57;;;;;;;7.00;88.68;99416.47;4223505;28;20676;-64
2023/04/14 04:28:35;;;;;;;37.63;18.07;;;;;;;7.01;88.75;99415.47;4235615;28;23745;-62
2023/04/14 04:31:03;;;;;;;36.80;17.93;;;;;;;7.07;88.78;99422.94;4240232;28;21358;-61
2023/04/14 04:33:31;;;;;;;39.60;18.40;;;;;;;6.95;88.98;99420.47;4234762;28;20369;-63
2023/04/14 04:35:58;;;;;;;37.73;17.97;;;;;;;7.00;89.12;99421.84;4237427;28;20338;-64
2023/04/14 04:38:25;;;;;;;43.77;20.00;;;;;;;6.90;89.41;99433.53;4236955;28;21283;-62
2023/04/14 04:40:52;;;;;;;39.40;18.87;;;;;;;6.91;89.39;99418.22;4217952;28;20725;-60
2023/04/14 04:43:18;;;;;;;45.10;18.63;;;;;;;7.03;89.41;99426.94;4233960;28;25846;-62
2023/04/14 04:45:57;;;;;;;41.37;19.13;;;;;;;6.93;89.63;99435.06;4235235;28;20273;-63
2023/04/14 04:48:24;;;;;;;43.40;19.27;;;;;;;6.80;90.25;99430.00;4209612;28;20680;-63
2023/04/14 04:50:51;;;;;;;50.90;20.13;;;;;;;6.85;90.18;99434.97;4212761;28;21983;-68
2023/04/14 04:53:17;;;;;;;49.13;20.47;;;;;;;6.89;90.27;99450.66;4236761;28;20258;-62
2023/04/14 04:55:44;;;;;;;47.53;20.40;;;;;;;7.02;89.90;99444.94;4225720;28;20868;-65
2023/04/14 04:58:10;;;;;;;52.10;22.13;;;;;;;7.07;89.40;99439.09;4229277;28;20243;-66
2023/04/14 05:00:37;;;;;;;47.07;20.13;;;;;;;7.01;89.51;99447.75;4230662;28;26027;-64
2023/04/14 05:03:04;;;;;;;52.73;21.33;;;;;;;7.01;90.07;99437.00;4230464;28;21094;-65
2023/04/14 05:05:35;;;;;;;51.37;20.03;;;;;;;7.11;89.62;99435.13;4226127;28;22753;-63
2023/04/14 05:08:03;;;;;;;42.50;19.83;;;;;;;7.00;89.74;99432.59;4237585;28;22577;-64
2023/04/14 05:10:29;;;;;;;47.37;17.93;;;;;;;6.92;90.13;99439.59;4219945;28;20247;-62
2023/04/14 05:12:56;;;;;;;46.43;18.67;;;;;;;6.92;90.03;99444.97;4229026;28;20239;-65
2023/04/14 05:15:23;;;;;;;44.30;19.10;;;;;;;7.03;90.08;99448.47;4237818;28;20664;-64
2023/04/14 05:17:50;;;;;;;44.40;19.90;;;;;;;7.01;90.23;99435.16;4207910;28;20314;-63
2023/04/14 05:20:16;;;;;;;39.37;18.63;;;;;;;7.09;90.42;99439.78;4202401;28;20245;-66
2023/04/14 05:22:43;;;;;;;40.37;19.70;;;;;;;7.17;90.24;99439.91;4206379;28;22417;-63
2023/04/14 05:25:10;;;;;;;49.27;18.93;;;;;;;7.13;90.25;99438.50;4215315;28;20385;-61
2023/04/14 05:27:36;;;;;;;37.73;17.60;;;;;;;7.20;90.21;99438.75;4205847;28;20242;-63
2023/04/14 05:30:04;;;;;;;49.53;19.10;;;;;;;7.17;90.65;99441.75;4200905;28;20239;-64
2023/04/14 05:32:30;;;;;;;47.27;20.50;;;;;;;7.24;90.68;99443.69;4212813;28;20240;-64
2023/04/14 05:34:57;;;;;;;47.57;20.67;;;;;;;7.31;90.53;99443.94;4190808;28;20434;-64
2023/04/14 05:37:24;;;;;;;49.50;20.03;;;;;;;7.50;90.00;99444.78;4186357;28;20237;-62
2023/04/14 05:39:51;;;;;;;43.13;19.07;;;;;;;7.61;89.53;99433.81;4200224;28;20241;-64
2023/04/14 05:42:17;;;;;;;43.33;19.87;;;;;;;7.65;88.99;99434.34;4207245;28;20345;-65
2023/04/14 05:44:44;;;;;;;39.23;20.93;;;;;;;7.58;89.71;99448.44;4201713;28;20231;-64
2023/04/14 05:47:10;;;;;;;49.67;18.83;;;;;;;7.61;89.90;99439.19;4200911;28;21289;-65
2023/04/14 05:49:37;;;;;;;42.27;20.97;;;;;;;7.76;89.04;99439.50;4195587;28;21842;-66
2023/04/14 05:52:04;;;;;;;40.60;21.13;;;;;;;7.88;88.92;99446.38;4215559;28;20225;-66
2023/04/14 05:54:30;;;;;;;39.30;20.57;;;;;;;7.99;88.53;99439.88;4202435;28;20617;-66
2023/04/14 05:56:57;;;;;;;41.77;19.47;;;;;;;8.02;88.25;99444.94;4227613;28;20239;-66
2023/04/14 05:59:24;;;;;;;39.10;20.60;;;;;;;8.15;87.49;99431.09;4215700;28;20778;-65
2023/04/14 06:01:51;;;;;;;41.13;21.47;;;;;;;8.37;87.09;99437.81;4222173;28;20224;-64
2023/04/14 06:04:17;;;;;;;39.67;19.57;;;;;;;8.74;86.10;99443.13;4188963;28;20228;-65
2023/04/14 06:06:44;;;;;;;33.17;18.73;;;;;;;8.89;85.08;99441.53;4224051;28;20245;-66
2023/04/14 06:09:11;;;;;;;31.97;19.40;;;;;;;9.00;84.50;99448.50;4207583;28;20259;-66
2023/04/14 06:11:38;;;;;;;29.93;17.73;;;;;;;9.35;84.04;99452.84;4201461;28;20312;-66
2023/04/14 06:14:06;;;;;;;30.13;16.87;;;;;;;9.35;82.54;99446.59;4223985;28;20544;-64
2023/04/14 06:16:33;;;;;;;30.57;16.90;;;;;;;9.43;82.16;99448.50;4291521;28;20414;-65
2023/04/14 06:19:00;;;;;;;27.83;16.40;;;;;;;9.37;82.61;99449.97;4205079;28;20311;-67
2023/04/14 06:21:27;;;;;;;28.93;15.97;;;;;;;9.36;82.19;99453.69;4243202;28;23553;-67
2023/04/14 06:23:54;;;;;;;28.27;15.47;;;;;;;9.59;81.52;99459.31;4337758;28;20788;-66
2023/04/14 06:26:21;;;;;;;28.37;14.97;;;;;;;9.86;80.13;99456.53;4388069;28;20670;-67
2023/04/14 06:28:48;;;;;;;29.13;15.20;;;;;;;10.07;79.29;99448.75;4365177;28;21734;-63
2023/04/14 06:31:15;;;;;;;32.10;15.13;;;;;;;10.32;78.40;99454.16;4362439;28;20247;-63
2023/04/14 06:33:43;;;;;;;25.13;12.17;;;;;;;10.19;78.04;99456.53;4354585;28;20254;-69
2023/04/14 06:36:12;;;;;;;25.50;12.90;;;;;;;10.24;78.09;99454.16;4312448;28;20240;-64
2023/04/14 06:38:39;;;;;;;23.10;12.67;;;;;;;10.53;77.51;99452.81;4246382;28;20240;-63
2023/04/14 06:41:06;;;;;;;23.60;13.07;;;;;;;10.70;76.59;99457.16;4249018;28;20295;-65
2023/04/14 06:43:33;;;;;;;22.13;12.93;;;;;;;10.70;76.89;99450.94;4233079;28;21881;-64
2023/04/14 06:45:59;;;;;;;21.00;11.77;;;;;;;10.76;76.48;99463.75;4252040;28;20322;-66
2023/04/14 06:48:26;;;;;;;20.47;11.07;;;;;;;10.80;76.29;99454.25;4247337;28;20598;-64
2023/04/14 06:50:54;;;;;;;23.50;10.77;;;;;;;10.99;75.56;99455.72;4225772;28;20839;-63
2023/04/14 06:53:22;;;;;;;19.73;12.03;;;;;;;11.26;74.70;99448.19;4230562;28;23191;-65
2023/04/14 06:55:57;;;;;;;22.73;11.03;;;;;;;11.89;71.51;99448.19;4251775;28;22732;-64
2023/04/14 06:58:29;;;;;;;21.70;10.60;;;;;;;11.68;72.11;99448.81;4257010;28;20240;-65
2023/04/14 07:01:00;;;;;;;19.13;10.77;;;;;;;11.86;71.42;99452.06;4257975;28;20429;-66
2023/04/14 07:03:29;;;;;;;18.37;10.47;;;;;;;12.37;68.75;99448.00;4248498;28;20359;-64
2023/04/14 07:06:08;;;;;;;17.50;9.50;;;;;;;11.65;71.09;99447.31;4219793;28;20289;-64
2023/04/14 07:08:35;;;;;;;17.80;10.43;;;;;;;11.44;72.76;99441.69;4289705;28;20245;-63
2023/04/14 07:11:04;;;;;;;16.80;10.43;;;;;;;11.18;73.49;99446.34;4331003;28;20285;-65
2023/04/14 07:13:32;;;;;;;16.07;9.90;;;;;;;12.22;70.53;99439.78;4247291;28;20576;-67
2023/04/14 07:16:01;;;;;;;11.57;8.13;;;;;;;13.79;64.14;99443.44;4255010;28;20958;-65
2023/04/14 07:18:30;;;;;;;14.43;8.57;;;;;;;15.10;60.41;99444.09;4242363;28;25720;-66
2023/04/14 07:20:58;;;;;;;15.23;8.13;;;;;;;15.64;57.56;99443.25;4343701;28;20235;-68
2023/04/14 07:23:26;;;;;;;13.27;8.30;;;;;;;16.04;57.20;99445.28;4246008;28;21865;-68
2023/04/14 07:25:53;;;;;;;13.37;7.20;;;;;;;16.30;55.10;99443.63;4240855;28;20663;-67
2023/04/14 07:28:21;;;;;;;13.23;7.83;;;;;;;15.71;57.38;99437.81;4245407;28;21241;-65
2023/04/14 07:30:49;;;;;;;12.87;8.10;;;;;;;16.53;55.42;99442.34;4229525;28;20235;-69
2023/04/14 07:33:17;;;;;;;12.10;7.80;;;;;;;16.39;55.98;99444.25;4245437;28;20333;-67
2023/04/14 07:35:49;;;;;;;11.27;7.73;;;;;;;16.36;55.25;99440.03;4237915;28;23065;-71
2023/04/14 07:38:28;;;;;;;11.37;7.20;;;;;;;16.27;55.74;99449.50;4223315;28;20559;-62
2023/04/14 07:40:55;;;;;;;10.53;6.67;;;;;;;17.05;53.45;99448.00;4235349;28;20236;-66
2023/04/14 07:43:22;;;;;;;15.17;6.87;;;;;;;16.90;53.46;99446.31;4248582;28;20243;-64
2023/04/14 07:45:51;;;;;;;15.67;7.00;;;;;;;16.53;55.07;99448.66;4255539;28;20282;-66
2023/04/14 07:48:20;;;;;;;9.83;6.60;;;;;;;17.35;53.07;99452.94;4211416;28;20240;-70
2023/04/14 07:50:48;;;;;;;9.57;6.07;;;;;;;17.20;53.23;99455.94;4238480;28;20236;-68
2023/04/14 07:53:15;;;;;;;9.13;6.40;;;;;;;17.73;51.76;99447.50;4235424;28;21850;-72
2023/04/14 07:55:42;;;;;;;9.00;6.27;;;;;;;17.48;52.19;99450.16;4274807;28;20236;-69
2023/04/14 07:58:08;;;;;;;12.23;6.37;;;;;;;17.77;51.02;99445.16;4233848;28;21088;-68
2023/04/14 08:00:41;;;;;;;11.33;6.07;;;;;;;17.03;53.48;99441.88;4247878;28;20236;-66
2023/04/14 08:03:08;;;;;;;15.90;6.53;;;;;;;17.94;50.94;99450.94;4246123;28;20313;-68
2023/04/14 08:05:35;;;;;;;8.43;5.70;;;;;;;17.66;51.50;99443.13;4245096;28;20341;-66
2023/04/14 08:08:03;;;;;;;8.93;5.97;;;;;;;17.53;52.36;99449.50;4243536;28;21856;-65
2023/04/14 08:10:30;;;;;;;12.03;6.13;;;;;;;16.48;54.67;99442.97;4254038;28;20805;-69
2023/04/14 08:12:57;;;;;;;9.33;5.93;;;;;;;15.82;56.68;99445.41;4249548;28;20267;-66
2023/04/14 08:15:25;;;;;;;9.17;6.20;;;;;;;15.90;57.66;99449.88;4244882;28;20240;-67
2023/04/14 08:17:53;;;;;;;7.90;5.57;;;;;;;15.72;57.66;99450.44;4240767;28;20233;-68
2023/04/14 08:20:20;;;;;;;11.90;5.47;;;;;;;15.35;59.44;99447.16;4239664;28;20307;-68
2023/04/14 08:22:47;;;;;;;10.43;6.47;;;;;;;15.55;58.69;99438.19;4261490;28;20240;-68
2023/04/14 08:25:13;;;;;;;11.30;5.90;;;;;;;15.73;57.90;99437.63;4246851;28;20239;-65
2023/04/14 08:27:40;;;;;;;9.37;5.37;;;;;;;15.69;57.59;99435.31;4226102;28;20308;-67
2023/04/14 08:30:07;;;;;;;10.47;5.67;;;;;;;15.24;59.06;99432.22;4235962;28;22472;-65
2023/04/14 08:32:36;;;;;;;10.87;6.37;;;;;;;15.10;59.85;99438.66;4255144;28;20236;-66
2023/04/14 08:35:04;;;;;;;9.53;5.83;;;;;;;15.28;59.51;99440.81;4256341;28;20659;-63
2023/04/14 08:37:51;;;;;;;10.40;5.90;;;;;;;15.20;59.42;99439.94;4233657;28;20969;-67
2023/04/14 08:40:18;;;;;;;11.97;5.80;;;;;;;15.00;61.28;99433.53;4228038;28;21180;-69
2023/04/14 08:42:45;;;;;;;12.40;5.70;;;;;;;15.09;60.47;99435.06;4228650;28;21794;-68
2023/04/14 08:45:11;;;;;;;14.07;5.50;;;;;;;15.12;60.59;99434.66;4223767;28;20565;-67
2023/04/14 08:47:39;;;;;;;8.03;5.20;;;;;;;15.43;59.66;99436.06;4241939;28;22283;-61
2023/04/14 08:50:12;;;;;;;8.07;5.30;;;;;;;15.56;58.68;99431.69;4235200;28;20239;-69
2023/04/14 08:52:39;;;;;;;9.70;5.47;;;;;;;15.32;59.39;99439.38;4250321;28;20230;-65
2023/04/14 08:55:07;;;;;;;7.80;5.37;;;;;;;15.08;60.12;99435.28;4232709;28;21177;-65
2023/04/14 08:57:34;;;;;;;8.47;5.37;;;;;;;15.05;60.88;99433.78;4217583;28;20244;-67
2023/04/14 09:00:03;;;;;;;8.67;5.23;;;;;;;15.20;60.33;99429.06;4244391;28;20246;-67
2023/04/14 09:02:33;;;;;;;9.30;5.43;;;;;;;15.01;60.30;99425.19;4283748;28;20289;-67
2023/04/14 09:05:01;;;;;;;8.30;5.13;;;;;;;14.97;60.68;99425.78;4245891;28;20539;-68
2023/04/14 09:07:29;;;;;;;8.33;5.57;;;;;;;14.85;60.83;99422.78;4232171;28;20247;-68
2023/04/14 09:09:56;;;;;;;8.37;5.37;;;;;;;15.03;60.48;99427.69;4277482;28;20231;-66
2023/04/14 09:12:24;;;;;;;8.37;5.33;;;;;;;14.62;61.31;99423.00;4254016;28;20239;-68
2023/04/14 09:14:52;;;;;;;8.83;5.77;;;;;;;14.62;61.33;99414.81;4253155;28;20243;-71
2023/04/14 09:17:19;;;;;;;8.73;5.10;;;;;;;14.64;61.38;99421.78;4251723;28;20279;-64
2023/04/14 09:19:46;;;;;;;8.80;5.00;;;;;;;14.86;61.01;99419.84;4238472;28;21074;-68
2023/04/14 09:22:33;;;;;;;8.90;5.10;;;;;;;15.04;60.67;99422.03;4236859;28;20381;-70
2023/04/14 09:25:01;;;;;;;8.67;5.07;;;;;;;14.96;60.42;99421.38;4228177;28;20340;-68
2023/04/14 09:27:29;;;;;;;9.10;5.10;;;;;;;14.59;60.97;99424.25;4262325;28;21128;-68
2023/04/14 09:29:57;;;;;;;12.53;5.70;;;;;;;14.57;61.13;99418.16;4236464;28;22377;-68
2023/04/14 09:32:24;;;;;;;8.57;5.10;;;;;;;14.57;61.12;99415.44;4232379;28;20244;-69
2023/04/14 09:34:52;;;;;;;11.17;5.50;;;;;;;14.52;61.67;99418.75;4242290;28;20234;-69
2023/04/14 09:37:23;;;;;;;10.60;5.20;;;;;;;14.38;61.39;99422.44;4253094;28;20542;-69
2023/04/14 09:39:51;;;;;;;9.13;5.30;;;;;;;14.45;61.01;99423.31;4233851;28;21591;-67
2023/04/14 09:42:18;;;;;;;9.97;4.87;;;;;;;14.55;61.04;99425.69;4235165;28;20240;-68
2023/04/14 09:44:55;;;;;;;9.13;5.43;;;;;;;14.73;61.43;99425.22;4264358;28;20236;-66
2023/04/14 09:47:23;;;;;;;7.77;5.07;;;;;;;14.86;59.62;99421.75;4226662;28;20893;-66
2023/04/14 09:49:56;;;;;;;9.07;4.97;;;;;;;14.95;60.05;99425.13;4243360;28;20227;-70
2023/04/14 09:52:38;;;;;;;8.97;5.03;;;;;;;15.18;59.71;99419.41;4221894;28;20510;-65
2023/04/14 09:55:08;;;;;;;10.50;4.83;;;;;;;15.19;59.55;99424.63;4217282;28;20298;-66
2023/04/14 09:57:36;;;;;;;7.00;4.43;;;;;;;15.50;58.80;99412.38;4264097;28;20614;-70
2023/04/14 10:00:23;;;;;;;12.87;4.97;;;;;;;15.56;57.60;99415.31;4253925;28;21644;-68
2023/04/14 10:02:54;;;;;;;9.60;5.50;;;;;;;15.25;58.82;99401.19;4233283;28;20903;-67
2023/04/14 10:05:28;;;;;;;10.27;4.83;;;;;;;15.08;58.78;99411.56;4259953;28;20496;-64
2023/04/14 10:08:04;;;;;;;9.57;5.60;;;;;;;15.00;59.07;99409.00;4229953;28;20602;-65
2023/04/14 10:10:31;;;;;;;6.93;4.87;;;;;;;14.65;59.90;99403.53;4220487;28;20342;-66
2023/04/14 10:12:59;;;;;;;9.83;4.90;;;;;;;14.52;61.23;99401.56;4243534;28;20874;-68
2023/04/14 10:15:26;;;;;;;8.73;4.77;;;;;;;14.54;60.72;99399.50;4236569;28;21073;-65
2023/04/14 10:17:52;;;;;;;8.63;4.97;;;;;;;14.84;60.22;99393.84;4261216;28;20492;-67
2023/04/14 10:20:19;;;;;;;7.57;5.13;;;;;;;14.99;60.29;99401.91;4282587;28;20364;-65
2023/04/14 10:22:46;;;;;;;8.60;5.10;;;;;;;15.12;59.02;99407.41;4237991;28;20235;-65
2023/04/14 10:25:13;;;;;;;8.83;5.43;;;;;;;15.35;58.59;99395.34;4258475;28;22977;-64
2023/04/14 10:27:40;;;;;;;8.90;5.40;;;;;;;15.16;59.31;99389.59;4216770;28;20260;-65
2023/04/14 10:30:07;;;;;;;8.50;5.30;;;;;;;15.62;58.12;99396.25;4264583;28;20241;-65
2023/04/14 10:32:36;;;;;;;5.87;4.93;;;;;;;15.76;56.88;99391.66;4240229;28;20521;-67
2023/04/14 10:35:05;;;;;;;10.93;5.13;;;;;;;15.69;57.30;99396.25;4223003;28;20418;-49
2023/04/14 10:37:34;;;;;;;9.53;5.20;;;;;;;15.72;57.01;99395.84;4269550;28;20577;-66
2023/04/14 10:40:06;;;;;;;8.50;5.20;;;;;;;15.71;57.20;99396.91;4214625;28;20247;-66
2023/04/14 10:42:56;;;;;;;13.40;5.53;;;;;;;15.56;57.76;99396.22;4265256;28;20235;-66
2023/04/14 10:45:22;;;;;;;9.07;5.43;;;;;;;15.09;58.67;99398.78;4238434;28;20312;-67
2023/04/14 10:47:49;;;;;;;8.30;5.30;;;;;;;15.04;58.58;99399.41;4224160;28;20410;-66
2023/04/14 10:50:18;;;;;;;7.57;4.90;;;;;;;15.10;58.27;99403.22;4206533;28;22281;-65
2023/04/14 10:52:49;;;;;;;11.23;5.80;;;;;;;15.18;58.38;99403.03;4255010;28;20738;-66
2023/04/14 10:55:16;;;;;;;9.87;5.83;;;;;;;15.08;58.38;99400.66;4254290;28;20232;-68
2023/04/14 10:57:44;;;;;;;12.67;5.40;;;;;;;15.28;58.54;99389.03;4230710;28;21754;-66
2023/04/14 11:00:24;;;;;;;11.80;5.23;;;;;;;15.80;57.21;99386.63;4247882;28;20287;-67
2023/04/14 11:03:09;;;;;;;8.30;5.30;;;;;;;15.52;57.50;99385.72;4240001;28;22534;-65
2023/04/14 11:05:41;;;;;;;10.73;5.43;;;;;;;15.72;55.97;99382.22;4251920;28;20512;-69
2023/04/14 11:08:13;;;;;;;7.67;5.13;;;;;;;15.77;55.76;99376.13;4239961;28;20774;-66
2023/04/14 11:10:46;;;;;;;7.67;5.10;;;;;;;15.83;56.03;99378.06;4237107;28;26876;-66
2023/04/14 11:13:14;;;;;;;9.63;5.50;;;;;;;15.82;55.84;99374.44;4241842;28;20235;-66
2023/04/14 11:16:04;;;;;;;7.90;5.30;;;;;;;15.59;56.61;99380.28;4245614;28;21028;-66
2023/04/14 11:18:41;;;;;;;7.43;5.00;;;;;;;15.65;56.91;99368.53;4245382;28;20235;-65
2023/04/14 11:21:13;;;;;;;12.83;4.80;;;;;;;15.59;56.32;99372.13;4250889;28;20381;-66
2023/04/14 11:23:40;;;;;;;10.77;4.97;;;;;;;15.53;56.70;99376.50;4251937;28;20242;-66
2023/04/14 11:26:08;;;;;;;7.97;4.70;;;;;;;15.52;56.49;99369.34;4237125;28;25278;-66
2023/04/14 11:28:37;;;;;;;7.93;4.73;;;;;;;15.75;56.82;99365.41;4257287;28;20253;-66
2023/04/14 11:31:05;;;;;;;7.43;4.90;;;;;;;15.53;56.12;99368.31;4215776;28;20662;-64
2023/04/14 11:33:34;;;;;;;6.57;4.93;;;;;;;15.16;57.90;99356.88;4232354;28;20232;-68
2023/04/14 11:36:04;;;;;;;10.00;4.23;;;;;;;15.30;58.18;99365.09;4237618;28;21706;-64
2023/04/14 11:38:34;;;;;;;9.10;5.00;;;;;;;15.31;57.09;99358.59;4217013;28;20686;-66